createdAt,value
2023-01-08T00:00:51.796Z,86.69
2023-01-08T00:01:51.683Z,87.00
2023-01-08T00:02:51.808Z,87.20
2023-01-08T00:03:51.838Z,87.20
2023-01-08T00:04:51.642Z,87.10
2023-01-08T00:05:51.749Z,86.90
2023-01-08T00:06:51.656Z,86.90
2023-01-08T00:07:51.607Z,87.00
2023-01-08T00:08:51.606Z,87.00
2023-01-08T00:09:51.580Z,87.10
2023-01-08T00:10:51.576Z,86.38
2023-01-08T00:11:51.568Z,86.79
2023-01-08T00:12:51.563Z,86.38
2023-01-08T00:13:51.561Z,87.20
2023-01-08T00:14:51.526Z,87.30
2023-01-08T00:15:51.516Z,87.45
2023-01-08T00:16:51.558Z,87.24
2023-01-08T00:17:51.502Z,87.45
2023-01-08T00:18:51.480Z,87.10
2023-01-08T00:19:51.495Z,87.41
2023-01-08T00:20:51.500Z,87.10
2023-01-08T00:21:51.575Z,86.79
2023-01-08T00:22:51.450Z,86.79
2023-01-08T00:23:51.439Z,86.90
2023-01-08T00:24:51.422Z,87.04
2023-01-08T00:25:51.416Z,87.30
2023-01-08T00:26:51.442Z,86.90
2023-01-08T00:27:51.407Z,87.35
2023-01-08T00:28:51.370Z,86.69
2023-01-08T00:29:51.364Z,86.90
2023-01-08T00:30:51.466Z,87.30
2023-01-08T00:31:51.353Z,87.10
2023-01-08T00:32:51.351Z,86.90
2023-01-08T00:33:51.354Z,87.10
2023-01-08T00:34:51.299Z,87.20
2023-01-08T00:35:51.295Z,87.20
2023-01-08T00:36:51.304Z,87.30
2023-01-08T00:37:51.404Z,87.20
2023-01-08T00:38:51.281Z,87.30
2023-01-08T00:39:51.250Z,87.20
2023-01-08T00:40:51.244Z,87.00
2023-01-08T00:41:51.254Z,87.00
2023-01-08T00:42:51.235Z,87.30
2023-01-08T00:43:51.231Z,87.20
2023-01-08T00:44:51.208Z,87.20
2023-01-08T00:45:51.276Z,87.51
2023-01-08T00:46:51.172Z,87.30
2023-01-08T00:47:51.191Z,86.90
2023-01-08T00:48:51.158Z,87.00
2023-01-08T00:49:51.174Z,87.20
2023-01-08T00:50:51.154Z,87.30
2023-01-08T00:51:51.121Z,87.30
2023-01-08T00:52:51.115Z,87.30
2023-01-08T00:53:51.233Z,87.20
2023-01-08T00:54:51.097Z,86.79
2023-01-08T00:55:51.083Z,87.30
2023-01-08T00:56:51.060Z,86.90
2023-01-08T00:57:51.064Z,87.10
2023-01-08T00:58:51.065Z,86.90
2023-01-08T00:59:51.040Z,87.20
2023-01-08T01:00:51.104Z,86.90
2023-01-08T01:01:51.336Z,87.10
2023-01-08T01:02:51.000Z,86.79
2023-01-08T01:03:51.049Z,87.30
2023-01-08T01:04:50.994Z,87.00
2023-01-08T01:05:50.967Z,86.79
2023-01-08T01:06:50.973Z,87.00
2023-01-08T01:07:50.944Z,87.20
2023-01-08T01:08:50.936Z,86.90
2023-01-08T01:09:51.040Z,87.00
2023-01-08T01:10:50.937Z,86.79
2023-01-08T01:11:50.907Z,87.00
2023-01-08T01:12:50.909Z,86.79
2023-01-08T01:13:50.900Z,86.79
2023-01-08T01:14:50.873Z,87.00
2023-01-08T01:15:50.874Z,87.41
2023-01-08T01:16:50.942Z,87.00
2023-01-08T01:17:50.840Z,86.90
2023-01-08T01:18:50.853Z,87.10
2023-01-08T01:19:50.827Z,87.30
2023-01-08T01:20:50.805Z,87.41
2023-01-08T01:21:50.812Z,87.51
2023-01-08T01:22:50.793Z,87.30
2023-01-08T01:23:50.793Z,86.79
2023-01-08T01:24:50.782Z,86.59
2023-01-08T01:25:50.877Z,87.00
2023-01-08T01:26:50.736Z,87.20
2023-01-08T01:27:50.720Z,86.79
2023-01-08T01:28:50.751Z,87.10
2023-01-08T01:29:50.702Z,86.90
2023-01-08T01:30:50.747Z,87.20
2023-01-08T01:31:50.688Z,87.10
2023-01-08T01:32:50.677Z,87.20
2023-01-08T01:33:50.661Z,86.90
2023-01-08T01:34:50.669Z,87.16
2023-01-08T01:35:50.636Z,87.10
2023-01-08T01:36:50.707Z,87.10
2023-01-08T01:37:50.613Z,87.10
2023-01-08T01:38:50.603Z,86.38
2023-01-08T01:39:50.595Z,86.90
2023-01-08T01:40:50.584Z,86.90
2023-01-08T01:41:50.699Z,87.10
2023-01-08T01:42:50.576Z,87.20
2023-01-08T01:43:50.588Z,87.00
2023-01-08T01:44:50.561Z,87.10
2023-01-08T01:45:50.594Z,86.38
2023-01-08T01:46:50.516Z,87.00
2023-01-08T01:47:50.499Z,87.51
2023-01-08T01:48:50.515Z,87.10
2023-01-08T01:49:50.512Z,86.96
2023-01-08T01:50:50.494Z,86.90
2023-01-08T01:51:50.460Z,87.41
2023-01-08T01:52:50.447Z,87.51
2023-01-08T01:53:50.468Z,87.26
2023-01-08T01:54:50.432Z,87.51
2023-01-08T01:55:50.415Z,87.51
2023-01-08T01:56:50.420Z,87.71
2023-01-08T01:57:50.505Z,87.82
2023-01-08T01:58:50.409Z,87.61
2023-01-08T01:59:50.374Z,87.82
2023-01-08T02:00:50.367Z,87.51
2023-01-08T02:01:50.524Z,88.02
2023-01-08T02:02:50.342Z,87.71
2023-01-08T02:03:50.427Z,87.61
2023-01-08T02:04:50.325Z,87.82
2023-01-08T02:05:50.307Z,87.30
2023-01-08T02:06:50.298Z,87.61
2023-01-08T02:07:50.280Z,87.82
2023-01-08T02:08:50.290Z,88.02
2023-01-08T02:09:50.271Z,87.71
2023-01-08T02:10:50.251Z,88.02
2023-01-08T02:11:50.275Z,88.02
2023-01-08T02:12:50.263Z,88.02
2023-01-08T02:13:50.239Z,88.02
2023-01-08T02:14:50.245Z,88.02
2023-01-08T02:15:50.203Z,88.23
2023-01-08T02:16:50.379Z,88.23
2023-01-08T02:17:50.205Z,88.33
2023-01-08T02:18:50.202Z,87.92
2023-01-08T02:19:50.171Z,88.23
2023-01-08T02:20:50.143Z,88.43
2023-01-08T02:21:50.178Z,88.23
2023-01-08T02:22:50.126Z,87.71
2023-01-08T02:23:50.108Z,88.23
2023-01-08T02:24:50.118Z,88.53
2023-01-08T02:25:50.971Z,89.15
2023-01-08T02:26:50.087Z,88.94
2023-01-08T02:27:50.062Z,88.43
2023-01-08T02:28:50.073Z,89.04
2023-01-08T02:29:50.157Z,89.25
2023-01-08T02:30:50.116Z,88.12
2023-01-08T02:31:50.046Z,88.12
2023-01-08T02:32:50.009Z,88.53
2023-01-08T02:33:50.022Z,88.78
2023-01-08T02:34:49.990Z,88.43
2023-01-08T02:35:49.975Z,88.94
2023-01-08T02:36:50.002Z,89.09
2023-01-08T02:37:49.999Z,88.74
2023-01-08T02:38:49.950Z,88.53
2023-01-08T02:39:49.931Z,88.78
2023-01-08T02:40:49.922Z,88.74
2023-01-08T02:41:49.914Z,88.78
2023-01-08T02:42:49.964Z,88.53
2023-01-08T02:43:49.885Z,88.53
2023-01-08T02:44:49.904Z,88.64
2023-01-08T02:45:50.021Z,88.74
2023-01-08T02:46:49.856Z,88.74
2023-01-08T02:47:49.865Z,88.88
2023-01-08T02:48:49.857Z,89.39
2023-01-08T02:49:49.835Z,89.18
2023-01-08T02:50:49.848Z,89.18
2023-01-08T02:51:49.795Z,89.29
2023-01-08T02:52:49.789Z,89.35
2023-01-08T02:53:49.779Z,89.29
2023-01-08T02:54:49.769Z,89.18
2023-01-08T02:55:49.765Z,89.29
2023-01-08T02:56:49.770Z,89.09
2023-01-08T02:57:49.753Z,89.39
2023-01-08T02:58:49.730Z,89.29
2023-01-08T02:59:49.721Z,89.59
2023-01-08T03:00:49.721Z,89.59
2023-01-08T03:01:49.998Z,89.59
2023-01-08T03:02:50.695Z,89.90
2023-01-08T03:03:49.794Z,89.70
2023-01-08T03:04:49.653Z,90.00
2023-01-08T03:05:49.668Z,90.00
2023-01-08T03:06:49.655Z,89.39
2023-01-08T03:07:49.631Z,89.09
2023-01-08T03:08:49.622Z,89.39
2023-01-08T03:09:49.603Z,89.29
2023-01-08T03:10:49.642Z,88.78
2023-01-08T03:11:49.589Z,88.78
2023-01-08T03:12:49.568Z,89.50
2023-01-08T03:13:49.557Z,89.39
2023-01-08T03:14:49.549Z,90.00
2023-01-08T03:15:49.550Z,90.11
2023-01-08T03:16:49.676Z,89.50
2023-01-08T03:17:49.625Z,89.80
2023-01-08T03:18:49.511Z,90.00
2023-01-08T03:19:49.490Z,89.50
2023-01-08T03:20:49.483Z,89.29
2023-01-08T03:21:49.488Z,88.47
2023-01-08T03:22:49.487Z,88.98
2023-01-08T03:23:49.439Z,89.39
2023-01-08T03:24:49.470Z,88.98
2023-01-08T03:25:49.421Z,89.09
2023-01-08T03:26:49.432Z,88.37
2023-01-08T03:27:49.404Z,88.26
2023-01-08T03:28:49.401Z,87.82
2023-01-08T03:29:49.376Z,87.51
2023-01-08T03:30:49.421Z,87.35
2023-01-08T03:31:49.378Z,87.30
2023-01-08T03:32:49.353Z,87.10
2023-01-08T03:33:49.499Z,87.10
2023-01-08T03:34:49.332Z,87.10
2023-01-08T03:35:49.317Z,87.51
2023-01-08T03:36:49.343Z,87.51
2023-01-08T03:37:49.286Z,87.30
2023-01-08T03:38:49.291Z,87.20
2023-01-08T03:39:49.310Z,87.41
2023-01-08T03:40:49.273Z,87.10
2023-01-08T03:41:49.263Z,86.90
2023-01-08T03:42:49.274Z,86.90
2023-01-08T03:43:49.227Z,87.10
2023-01-08T03:44:49.223Z,86.94
2023-01-08T03:45:49.245Z,87.14
2023-01-08T03:46:49.229Z,87.10
2023-01-08T03:47:49.189Z,86.79
2023-01-08T03:48:49.189Z,86.69
2023-01-08T03:49:49.269Z,86.90
2023-01-08T03:50:49.157Z,87.20
2023-01-08T03:51:49.136Z,86.69
2023-01-08T03:52:49.129Z,86.90
2023-01-08T03:53:49.138Z,87.00
2023-01-08T03:54:49.104Z,87.20
2023-01-08T03:55:49.121Z,86.43
2023-01-08T03:56:49.112Z,86.12
2023-01-08T03:57:49.093Z,86.29
2023-01-08T03:58:49.080Z,85.77
2023-01-08T03:59:49.051Z,86.02
2023-01-08T04:00:49.038Z,86.02
2023-01-08T04:01:49.146Z,86.29
2023-01-08T04:02:49.036Z,86.32
2023-01-08T04:03:49.031Z,86.12
2023-01-08T04:04:49.002Z,86.63
2023-01-08T04:05:49.140Z,86.18
2023-01-08T04:06:48.984Z,87.20
2023-01-08T04:07:48.984Z,86.18
2023-01-08T04:08:48.959Z,85.77
2023-01-08T04:09:48.972Z,86.02
2023-01-08T04:10:48.942Z,85.77
2023-01-08T04:11:48.916Z,85.77
2023-01-08T04:12:48.920Z,85.16
2023-01-08T04:13:48.933Z,85.30
2023-01-08T04:14:48.913Z,85.16
2023-01-08T04:15:48.981Z,84.89
2023-01-08T04:16:48.875Z,85.47
2023-01-08T04:17:48.853Z,85.57
2023-01-08T04:18:48.851Z,85.47
2023-01-08T04:19:48.869Z,84.89
2023-01-08T04:20:48.856Z,84.95
2023-01-08T04:21:48.920Z,84.79
2023-01-08T04:22:48.850Z,85.06
2023-01-08T04:23:48.801Z,84.85
2023-01-08T04:24:48.826Z,85.50
2023-01-08T04:25:48.798Z,85.50
2023-01-08T04:26:48.759Z,85.71
2023-01-08T04:27:48.752Z,85.50
2023-01-08T04:28:48.739Z,85.71
2023-01-08T04:29:48.717Z,85.50
2023-01-08T04:30:48.767Z,85.81
2023-01-08T04:31:48.741Z,85.67
2023-01-08T04:32:48.690Z,85.57
2023-01-08T04:33:48.729Z,85.20
2023-01-08T04:34:48.682Z,85.81
2023-01-08T04:35:48.659Z,85.50
2023-01-08T04:36:48.670Z,85.71
2023-01-08T04:37:48.743Z,85.40
2023-01-08T04:38:48.671Z,85.61
2023-01-08T04:39:48.616Z,85.30
2023-01-08T04:40:48.622Z,85.91
2023-01-08T04:41:48.592Z,85.50
2023-01-08T04:42:48.589Z,85.91
2023-01-08T04:43:48.585Z,86.02
2023-01-08T04:44:48.583Z,85.81
2023-01-08T04:45:48.578Z,85.61
2023-01-08T04:46:48.540Z,86.02
2023-01-08T04:47:48.533Z,86.02
2023-01-08T04:48:48.524Z,86.02
2023-01-08T04:49:48.533Z,85.91
2023-01-08T04:50:48.529Z,86.32
2023-01-08T04:51:48.490Z,86.32
2023-01-08T04:52:48.469Z,87.14
2023-01-08T04:53:48.629Z,86.94
2023-01-08T04:54:48.451Z,87.18
2023-01-08T04:55:48.444Z,86.94
2023-01-08T04:56:48.445Z,87.59
2023-01-08T04:57:48.413Z,86.88
2023-01-08T04:58:48.450Z,87.38
2023-01-08T04:59:48.425Z,87.49
2023-01-08T05:00:48.386Z,86.98
2023-01-08T05:01:48.597Z,87.29
2023-01-08T05:02:48.483Z,87.49
2023-01-08T05:03:48.363Z,87.90
2023-01-08T05:04:48.356Z,87.59
2023-01-08T05:05:49.950Z,87.38
2023-01-08T05:06:48.362Z,87.79
2023-01-08T05:07:48.341Z,87.49
2023-01-08T05:08:48.313Z,87.38
2023-01-08T05:09:48.398Z,87.38
2023-01-08T05:10:48.314Z,87.29
2023-01-08T05:11:48.271Z,87.18
2023-01-08T05:12:48.309Z,87.29
2023-01-08T05:13:48.244Z,87.08
2023-01-08T05:14:48.273Z,87.65
2023-01-08T05:15:48.260Z,87.24
2023-01-08T05:16:48.236Z,87.08
2023-01-08T05:17:48.273Z,86.94
2023-01-08T05:18:48.192Z,87.35
2023-01-08T05:19:48.196Z,87.55
2023-01-08T05:20:48.163Z,87.35
2023-01-08T05:21:48.154Z,87.38
2023-01-08T05:22:48.158Z,87.55
2023-01-08T05:23:48.161Z,87.24
2023-01-08T05:24:48.151Z,87.38
2023-01-08T05:25:48.224Z,87.59
2023-01-08T05:26:48.111Z,87.76
2023-01-08T05:27:48.087Z,88.00
2023-01-08T05:28:48.134Z,88.00
2023-01-08T05:29:48.058Z,87.79
2023-01-08T05:30:48.136Z,88.41
2023-01-08T05:31:48.049Z,88.41
2023-01-08T05:32:48.034Z,88.20
2023-01-08T05:33:48.021Z,88.00
2023-01-08T05:34:48.011Z,88.41
2023-01-08T05:35:48.031Z,88.31
2023-01-08T05:36:47.990Z,88.51
2023-01-08T05:37:47.996Z,89.33
2023-01-08T05:38:47.979Z,88.51
2023-01-08T05:39:47.956Z,88.20
2023-01-08T05:40:48.011Z,88.41
2023-01-08T05:41:48.039Z,88.41
2023-01-08T05:42:47.921Z,88.10
2023-01-08T05:43:47.973Z,88.24
2023-01-08T05:44:47.934Z,87.79
2023-01-08T05:45:47.891Z,88.24
2023-01-08T05:46:47.926Z,88.20
2023-01-08T05:47:47.875Z,88.10
2023-01-08T05:48:47.864Z,88.10
2023-01-08T05:49:47.847Z,88.35
2023-01-08T05:50:47.875Z,87.79
2023-01-08T05:51:47.871Z,88.20
2023-01-08T05:52:47.835Z,87.59
2023-01-08T05:53:47.860Z,87.90
2023-01-08T05:54:47.800Z,87.90
2023-01-08T05:55:47.902Z,87.79
2023-01-08T05:56:47.769Z,87.63
2023-01-08T05:57:47.959Z,87.49
2023-01-08T05:58:47.821Z,88.00
2023-01-08T05:59:47.760Z,88.00
2023-01-08T06:00:47.728Z,87.63
2023-01-08T06:01:47.810Z,87.90
2023-01-08T06:02:48.002Z,87.70
2023-01-08T06:03:47.793Z,88.20
2023-01-08T06:04:47.707Z,88.31
2023-01-08T06:05:47.669Z,88.31
2023-01-08T06:06:47.680Z,88.31
2023-01-08T06:07:47.650Z,88.10
2023-01-08T06:08:47.655Z,88.31
2023-01-08T06:09:47.662Z,88.10
2023-01-08T06:10:47.641Z,88.10
2023-01-08T06:11:47.623Z,88.14
2023-01-08T06:12:47.607Z,88.31
2023-01-08T06:13:47.707Z,88.71
2023-01-08T06:14:47.588Z,88.31
2023-01-08T06:15:47.680Z,88.92
2023-01-08T06:16:47.555Z,88.62
2023-01-08T06:17:47.575Z,89.12
2023-01-08T06:18:47.572Z,88.56
2023-01-08T06:19:47.621Z,88.20
2023-01-08T06:20:47.522Z,88.20
2023-01-08T06:21:47.503Z,88.10
2023-01-08T06:22:47.558Z,88.00
2023-01-08T06:23:47.495Z,88.10
2023-01-08T06:24:47.486Z,88.20
2023-01-08T06:25:47.469Z,88.00
2023-01-08T06:26:47.494Z,88.10
2023-01-08T06:27:47.448Z,88.41
2023-01-08T06:28:47.420Z,87.96
2023-01-08T06:29:47.529Z,87.35
2023-01-08T06:30:47.398Z,87.85
2023-01-08T06:31:47.447Z,88.00
2023-01-08T06:32:47.378Z,87.55
2023-01-08T06:33:47.374Z,87.35
2023-01-08T06:34:47.428Z,88.10
2023-01-08T06:35:47.360Z,88.41
2023-01-08T06:36:47.329Z,89.29
2023-01-08T06:37:47.335Z,89.23
2023-01-08T06:38:47.321Z,89.12
2023-01-08T06:39:47.436Z,89.33
2023-01-08T06:40:47.341Z,89.74
2023-01-08T06:41:47.304Z,89.64
2023-01-08T06:42:47.335Z,90.45
2023-01-08T06:43:47.290Z,90.45
2023-01-08T06:44:47.244Z,90.66
2023-01-08T06:45:47.392Z,90.45
2023-01-08T06:46:47.314Z,90.56
2023-01-08T06:47:47.241Z,90.77
2023-01-08T06:48:47.199Z,90.77
2023-01-08T06:49:47.231Z,90.50
2023-01-08T06:50:47.175Z,90.70
2023-01-08T06:51:47.194Z,90.56
2023-01-08T06:52:47.162Z,90.86
2023-01-08T06:53:47.157Z,91.17
2023-01-08T06:54:47.133Z,91.83
2023-01-08T06:55:47.213Z,91.93
2023-01-08T06:56:53.593Z,92.14
2023-01-08T06:57:48.137Z,91.52
2023-01-08T06:58:47.088Z,92.14
2023-01-08T06:59:47.086Z,91.83
2023-01-08T07:00:47.089Z,91.52
2023-01-08T07:01:47.370Z,91.77
2023-01-08T07:02:47.188Z,92.28
2023-01-08T07:03:47.074Z,92.38
2023-01-08T07:04:47.032Z,92.49
2023-01-08T07:05:47.018Z,92.49
2023-01-08T07:06:47.024Z,92.49
2023-01-08T07:07:47.019Z,92.55
2023-01-08T07:08:46.981Z,92.38
2023-01-08T07:09:46.975Z,92.28
2023-01-08T07:10:47.003Z,92.49
2023-01-08T07:11:46.979Z,92.69
2023-01-08T07:12:46.943Z,93.10
2023-01-08T07:13:46.972Z,92.79
2023-01-08T07:14:46.932Z,92.90
2023-01-08T07:15:46.982Z,92.59
2023-01-08T07:16:46.933Z,92.90
2023-01-08T07:17:47.009Z,93.10
2023-01-08T07:18:46.879Z,92.69
2023-01-08T07:19:46.886Z,93.20
2023-01-08T07:20:46.853Z,92.59
2023-01-08T07:21:46.849Z,93.30
2023-01-08T07:22:46.860Z,93.41
2023-01-08T07:23:46.858Z,93.10
2023-01-08T07:24:46.807Z,93.30
2023-01-08T07:25:46.815Z,93.30
2023-01-08T07:26:46.783Z,93.41
2023-01-08T07:27:46.800Z,93.30
2023-01-08T07:28:46.770Z,93.20
2023-01-08T07:29:46.778Z,93.45
2023-01-08T07:30:46.738Z,93.41
2023-01-08T07:31:46.864Z,93.82
2023-01-08T07:32:46.719Z,93.62
2023-01-08T07:33:46.833Z,93.30
2023-01-08T07:34:46.697Z,93.41
2023-01-08T07:35:46.710Z,93.41
2023-01-08T07:36:46.680Z,94.12
2023-01-08T07:37:46.691Z,93.96
2023-01-08T07:38:46.660Z,94.02
2023-01-08T07:39:46.661Z,93.96
2023-01-08T07:40:46.651Z,94.48
2023-01-08T07:41:46.667Z,94.27
2023-01-08T07:42:46.606Z,95.40
2023-01-08T07:43:46.617Z,95.20
2023-01-08T07:44:46.593Z,95.40
2023-01-08T07:45:46.580Z,95.50
2023-01-08T07:46:46.616Z,96.01
2023-01-08T07:47:46.594Z,96.12
2023-01-08T07:48:46.549Z,95.50
2023-01-08T07:49:46.672Z,95.91
2023-01-08T07:50:46.545Z,95.29
2023-01-08T07:51:46.533Z,95.50
2023-01-08T07:52:46.507Z,95.29
2023-01-08T07:53:46.553Z,95.40
2023-01-08T07:54:46.489Z,95.20
2023-01-08T07:55:46.476Z,95.61
2023-01-08T07:56:46.461Z,95.61
2023-01-08T07:57:46.493Z,95.50
2023-01-08T07:58:46.432Z,95.40
2023-01-08T07:59:46.450Z,94.78
2023-01-08T08:00:46.433Z,95.61
2023-01-08T08:01:46.644Z,95.09
2023-01-08T08:02:46.627Z,94.99
2023-01-08T08:03:46.417Z,94.89
2023-01-08T08:04:46.391Z,94.89
2023-01-08T08:05:46.397Z,94.83
2023-01-08T08:06:46.377Z,94.78
2023-01-08T08:07:46.343Z,94.89
2023-01-08T08:08:46.347Z,95.86
2023-01-08T08:09:46.320Z,95.61
2023-01-08T08:10:46.311Z,95.54
2023-01-08T08:11:46.300Z,95.65
2023-01-08T08:12:46.327Z,95.24
2023-01-08T08:13:46.304Z,96.06
2023-01-08T08:14:46.274Z,95.75
2023-01-08T08:15:46.283Z,95.75
2023-01-08T08:16:46.249Z,95.75
2023-01-08T08:17:46.245Z,95.75
2023-01-08T08:18:46.258Z,95.75
2023-01-08T08:19:46.211Z,95.75
2023-01-08T08:20:46.218Z,95.75
2023-01-08T08:21:46.304Z,95.90
2023-01-08T08:22:46.178Z,96.16
2023-01-08T08:23:46.166Z,95.95
2023-01-08T08:24:46.162Z,95.79
2023-01-08T08:25:46.181Z,96.10
2023-01-08T08:26:46.133Z,96.10
2023-01-08T08:27:46.126Z,96.00
2023-01-08T08:28:46.129Z,96.10
2023-01-08T08:29:46.092Z,96.51
2023-01-08T08:30:46.104Z,96.20
2023-01-08T08:31:46.101Z,96.20
2023-01-08T08:32:46.070Z,96.00
2023-01-08T08:33:46.061Z,96.41
2023-01-08T08:34:46.053Z,96.31
2023-01-08T08:35:46.070Z,96.31
2023-01-08T08:36:46.030Z,96.31
2023-01-08T08:37:46.121Z,96.41
2023-01-08T08:38:46.002Z,96.16
2023-01-08T08:39:45.996Z,96.26
2023-01-08T08:40:45.990Z,96.31
2023-01-08T08:41:45.982Z,96.06
2023-01-08T08:42:45.952Z,96.06
2023-01-08T08:43:45.969Z,95.86
2023-01-08T08:44:45.949Z,95.65
2023-01-08T08:45:45.929Z,95.54
2023-01-08T08:46:45.998Z,95.14
2023-01-08T08:47:45.950Z,94.83
2023-01-08T08:48:45.891Z,94.52
2023-01-08T08:49:45.918Z,94.52
2023-01-08T08:50:45.869Z,94.42
2023-01-08T08:51:45.863Z,94.52
2023-01-08T08:52:45.870Z,94.52
2023-01-08T08:53:45.976Z,94.11
2023-01-08T08:54:45.845Z,94.01
2023-01-08T08:55:45.839Z,94.21
2023-01-08T08:56:45.803Z,94.21
2023-01-08T08:57:45.811Z,93.95
2023-01-08T08:58:45.782Z,93.44
2023-01-08T08:59:45.836Z,93.13
2023-01-08T09:00:45.779Z,93.95
2023-01-08T09:01:45.893Z,93.74
2023-01-08T09:02:45.936Z,93.74
2023-01-08T09:03:45.741Z,93.85
2023-01-08T09:04:45.716Z,94.15
2023-01-08T09:05:45.720Z,93.49
2023-01-08T09:06:45.689Z,93.49
2023-01-08T09:07:45.687Z,93.54
2023-01-08T09:08:45.700Z,93.39
2023-01-08T09:09:45.773Z,92.78
2023-01-08T09:10:45.647Z,92.27
2023-01-08T09:11:45.639Z,92.27
2023-01-08T09:12:45.626Z,92.22
2023-01-08T09:13:45.664Z,92.36
2023-01-08T09:14:45.614Z,92.02
2023-01-08T09:15:45.593Z,91.24
2023-01-08T09:16:45.584Z,91.71
2023-01-08T09:17:45.586Z,91.50
2023-01-08T09:18:45.569Z,92.12
2023-01-08T09:19:45.586Z,91.71
2023-01-08T09:20:45.540Z,90.84
2023-01-08T09:21:45.568Z,91.05
2023-01-08T09:22:45.534Z,91.05
2023-01-08T09:23:45.583Z,90.95
2023-01-08T09:24:45.556Z,90.95
2023-01-08T09:25:45.601Z,90.84
2023-01-08T09:26:46.518Z,90.99
2023-01-08T09:27:45.483Z,90.48
2023-01-08T09:28:45.467Z,90.79
2023-01-08T09:29:45.469Z,90.79
2023-01-08T09:30:45.482Z,90.69
2023-01-08T09:31:45.449Z,90.89
2023-01-08T09:32:45.552Z,90.99
2023-01-08T09:33:45.437Z,90.99
2023-01-08T09:34:45.383Z,90.69
2023-01-08T09:35:45.391Z,90.89
2023-01-08T09:36:45.383Z,91.16
2023-01-08T09:37:45.382Z,90.75
2023-01-08T09:38:45.409Z,89.31
2023-01-08T09:39:51.023Z,89.62
2023-01-08T09:40:46.432Z,89.21
2023-01-08T09:41:45.433Z,89.51
2023-01-08T09:42:45.364Z,89.42
2023-01-08T09:43:45.716Z,88.59
2023-01-08T09:44:45.328Z,88.70
2023-01-08T09:45:45.449Z,89.00
2023-01-08T09:46:45.329Z,88.86
2023-01-08T09:47:46.050Z,88.65
2023-01-08T09:48:45.303Z,88.65
2023-01-08T09:49:45.273Z,89.06
2023-01-08T09:50:45.232Z,88.86
2023-01-08T09:51:45.249Z,88.86
2023-01-08T09:52:45.225Z,88.86
2023-01-08T09:53:45.234Z,89.06
2023-01-08T09:54:45.250Z,88.04
2023-01-08T09:55:45.391Z,88.18
2023-01-08T09:56:45.222Z,88.56
2023-01-08T09:57:45.265Z,89.27
2023-01-08T09:58:45.161Z,88.45
2023-01-08T09:59:45.220Z,88.35
2023-01-08T10:00:45.288Z,89.17
2023-01-08T10:01:45.253Z,88.24
2023-01-08T10:02:45.162Z,88.45
2023-01-08T10:03:45.218Z,88.96
2023-01-08T10:04:45.117Z,89.27
2023-01-08T10:05:45.077Z,89.58
2023-01-08T10:06:45.146Z,90.09
2023-01-08T10:07:45.120Z,90.19
2023-01-08T10:09:45.235Z,88.96
2023-01-08T10:10:45.223Z,88.86
2023-01-08T10:11:46.098Z,89.58
2023-01-08T10:12:45.042Z,89.47
2023-01-08T10:13:45.240Z,90.23
2023-01-08T10:14:45.035Z,89.92
2023-01-08T10:15:45.896Z,89.27
2023-01-08T10:17:14.050Z,90.03
2023-01-08T10:20:24.626Z,89.92
2023-01-08T10:21:24.208Z,90.23
2023-01-08T10:22:25.055Z,90.03
2023-01-08T10:23:26.359Z,90.75
2023-01-08T10:24:24.541Z,90.44
2023-01-08T10:25:25.499Z,90.75
2023-01-08T10:26:24.135Z,90.81
2023-01-08T10:27:23.915Z,91.56
2023-01-08T10:29:57.184Z,91.11
2023-01-08T10:30:57.140Z,91.63
2023-01-08T10:31:57.170Z,90.91
2023-01-08T10:32:57.157Z,91.22
2023-01-08T10:33:57.133Z,90.97
2023-01-08T10:34:57.100Z,90.86
2023-01-08T10:35:57.134Z,91.58
2023-01-08T10:36:57.112Z,91.64
2023-01-08T10:37:57.113Z,90.82
2023-01-08T10:38:57.042Z,90.52
2023-01-08T10:39:57.068Z,91.23
2023-01-08T10:40:57.028Z,90.88
2023-01-08T10:41:57.009Z,90.47
2023-01-08T10:42:57.040Z,90.21
2023-01-08T10:43:57.026Z,89.97
2023-01-08T10:44:57.013Z,90.21
2023-01-08T10:45:57.113Z,89.90
2023-01-08T10:46:57.005Z,90.06
2023-01-08T10:47:56.931Z,89.70
2023-01-08T10:48:57.003Z,89.80
2023-01-08T10:49:57.034Z,89.70
2023-01-08T10:50:57.153Z,90.82
2023-01-08T10:51:57.024Z,90.31
2023-01-08T10:52:57.015Z,90.62
2023-01-08T10:53:56.912Z,91.03
2023-01-08T10:54:56.927Z,91.58
2023-01-08T10:55:56.934Z,91.23
2023-01-08T10:56:56.864Z,91.64
2023-01-08T10:57:57.037Z,91.64
2023-01-08T10:58:57.456Z,91.23
2023-01-08T11:00:00.905Z,91.95
2023-01-08T11:00:58.309Z,91.74
2023-01-08T11:01:57.123Z,91.70
2023-01-08T11:02:56.998Z,91.50
2023-01-08T11:03:58.038Z,91.39
2023-01-08T11:04:57.107Z,91.85
2023-01-08T11:05:57.043Z,91.85
2023-01-08T11:06:56.925Z,91.09
2023-01-08T11:07:56.862Z,90.47
2023-01-08T11:08:56.784Z,89.90
2023-01-08T11:09:58.046Z,89.35
2023-01-08T11:10:58.428Z,89.04
2023-01-08T11:11:57.847Z,88.43
2023-01-08T11:13:19.919Z,89.04
2023-01-08T11:13:56.940Z,88.02
2023-01-08T11:14:57.955Z,88.08
2023-01-08T11:15:56.791Z,87.88
2023-01-08T11:16:56.721Z,86.65
2023-01-08T11:17:56.949Z,86.85
2023-01-08T11:18:56.770Z,87.06
2023-01-08T11:19:56.999Z,86.90
2023-01-08T11:20:56.772Z,85.97
2023-01-08T11:21:59.808Z,86.04
2023-01-08T11:22:56.712Z,86.49
2023-01-08T11:23:56.975Z,86.55
2023-01-08T11:24:56.675Z,85.42
2023-01-08T11:25:58.762Z,85.53
2023-01-08T11:26:57.823Z,85.42
2023-01-08T11:27:56.597Z,85.42
2023-01-08T11:28:56.492Z,84.75
2023-01-08T11:29:56.607Z,85.67
2023-01-08T11:30:56.532Z,84.75
2023-01-08T11:31:56.552Z,85.63
2023-01-08T11:32:58.472Z,84.81
2023-01-08T11:33:58.366Z,85.12
2023-01-08T11:34:58.081Z,84.61
2023-01-08T11:35:56.943Z,84.61
2023-01-08T11:36:56.769Z,83.79
2023-01-08T11:37:56.618Z,83.18
2023-01-08T11:39:18.545Z,83.59
2023-01-08T11:39:56.386Z,83.07
2023-01-08T11:40:56.571Z,82.97
2023-01-08T11:41:56.373Z,83.28
2023-01-08T11:42:56.447Z,83.04
2023-01-08T11:43:56.499Z,82.73
2023-01-08T11:44:56.411Z,82.53
2023-01-08T11:45:56.443Z,82.63
2023-01-08T11:46:56.339Z,81.81
2023-01-08T11:47:56.331Z,81.91
2023-01-08T11:48:56.379Z,81.81
2023-01-08T11:49:56.278Z,81.40
2023-01-08T11:50:56.290Z,80.99
2023-01-08T11:52:03.890Z,80.79
2023-01-08T11:52:56.517Z,81.10
2023-01-08T11:54:00.959Z,81.30
2023-01-08T11:54:56.268Z,81.10
2023-01-08T11:55:56.389Z,81.20
2023-01-08T11:56:56.841Z,80.93
2023-01-08T11:57:56.329Z,81.34
2023-01-08T11:58:56.318Z,81.54
2023-01-08T11:59:56.412Z,80.99
2023-01-08T12:00:56.254Z,81.54
2023-01-08T12:01:56.466Z,81.30
2023-01-08T12:02:56.235Z,80.69
2023-01-08T12:03:56.228Z,81.30
2023-01-08T12:04:56.385Z,81.20
2023-01-08T12:05:56.160Z,80.69
2023-01-08T12:06:56.225Z,80.89
2023-01-08T12:07:56.207Z,80.07
2023-01-08T12:08:56.224Z,80.69
2023-01-08T12:09:56.161Z,80.58
2023-01-08T12:10:56.173Z,79.77
2023-01-08T12:11:56.050Z,80.18
2023-01-08T12:12:56.240Z,80.07
2023-01-08T12:13:56.118Z,80.48
2023-01-08T12:14:56.009Z,80.58
2023-01-08T12:15:56.054Z,79.66
2023-01-08T12:16:56.006Z,79.46
2023-01-08T12:17:56.911Z,78.85
2023-01-08T12:18:55.991Z,78.85
2023-01-08T12:19:56.025Z,79.25
2023-01-08T12:20:56.109Z,78.03
2023-01-08T12:21:55.965Z,78.13
2023-01-08T12:22:55.976Z,77.93
2023-01-08T12:23:55.941Z,79.29
2023-01-08T12:24:55.951Z,78.64
2023-01-08T12:25:55.943Z,78.75
2023-01-08T12:26:56.050Z,78.85
2023-01-08T12:27:57.458Z,79.25
2023-01-08T12:28:55.911Z,79.25
2023-01-08T12:29:55.947Z,78.68
2023-01-08T12:30:56.048Z,79.57
2023-01-08T12:32:02.607Z,78.34
2023-01-08T12:32:56.890Z,77.83
2023-01-08T12:33:55.897Z,78.03
2023-01-08T12:34:55.901Z,77.62
2023-01-08T12:35:55.786Z,76.70
2023-01-08T12:36:55.744Z,76.81
2023-01-08T12:37:55.818Z,76.70
2023-01-08T12:38:55.746Z,77.56
2023-01-08T12:39:55.742Z,77.25
2023-01-08T12:40:56.309Z,77.76
2023-01-08T12:41:55.735Z,77.66
2023-01-08T12:43:00.968Z,78.07
2023-01-08T12:43:57.536Z,78.27
2023-01-08T12:44:55.707Z,78.17
2023-01-08T12:45:55.851Z,78.27
2023-01-08T12:46:55.764Z,78.38
2023-01-08T12:47:55.770Z,79.09
2023-01-08T12:48:57.966Z,79.19
2023-01-08T12:49:55.801Z,78.88
2023-01-08T12:50:56.828Z,79.39
2023-01-08T12:51:56.600Z,79.91
2023-01-08T12:52:55.633Z,80.11
2023-01-08T12:53:55.753Z,79.70
2023-01-08T12:54:55.741Z,79.60
2023-01-08T12:55:55.596Z,79.80
2023-01-08T12:56:55.932Z,80.42
2023-01-08T12:57:55.851Z,80.42